^^
Your Local Weather - Clay, NY Station Historical Data
Daily Summary for February 22, 2017 Units:  English    Metric   Both
« Previous Day
Next Day »
Daily Weekly Monthly Yearly Custom
  High: Low: Average:
Temperature: 58.2 °F 34.2 °F 44.7 °F
Dew Point: 39.1 °F 30.4 °F 34.8 °F
Humidity: 87% 46% 70%
Wind Speed: 3.0mph 0.0mph 0.7mph
Wind Gust: 6.0mph - -
Wind- - ENE
Pressure: 29.96 in 29.77 in -
Precipitation: 0.00 in    
Historical Graphs
 
 
Tabular Data for February 22, 2017
Time Temperature Dew Point Pressure Wind Wind Speed Wind Gust Humidity Rainfall Rate (Hourly) solar
00:04 37.8 °F 33.4 °F 29.95 in Calm   2.0 mph 84% 0.00 in 0 W/m2
00:10 37.7 °F 33.6 °F 29.95 in Calm     85% 0.00 in 0 W/m2
00:16 37.5 °F 33.4 °F 29.95 in Calm     85% 0.00 in 0 W/m2
00:22 37.3 °F 33.2 °F 29.95 in Calm     85% 0.00 in 0 W/m2
00:28 37.1 °F 33.3 °F 29.95 in Calm     86% 0.00 in 0 W/m2
00:33 36.9 °F 33.1 °F 29.95 in Calm     86% 0.00 in 0 W/m2
00:40 36.8 °F 33.0 °F 29.96 in Calm     86% 0.00 in 0 W/m2
00:46 36.6 °F 32.8 °F 29.95 in Calm     86% 0.00 in 0 W/m2
00:52 36.4 °F 32.9 °F 29.95 in Calm   1.0 mph 87% 0.00 in 0 W/m2
00:58 36.4 °F 32.9 °F 29.95 in Calm   1.0 mph 87% 0.00 in 0 W/m2
01:04 36.4 °F 32.9 °F 29.95 in Calm     87% 0.00 in 0 W/m2
01:10 36.4 °F 32.9 °F 29.95 in Calm     87% 0.00 in 0 W/m2
01:15 36.4 °F 32.9 °F 29.94 in Calm     87% 0.00 in 0 W/m2
01:22 36.6 °F 33.1 °F 29.94 in Calm     87% 0.00 in 0 W/m2
01:28 36.3 °F 32.5 °F 29.94 in Calm     86% 0.00 in 0 W/m2
01:34 36.1 °F 32.3 °F 29.94 in Calm     86% 0.00 in 0 W/m2
01:39 36.0 °F 32.2 °F 29.94 in Calm     86% 0.00 in 0 W/m2
01:46 35.6 °F 32.1 °F 29.94 in Calm     87% 0.00 in 0 W/m2
01:52 35.5 °F 32.0 °F 29.94 in Calm   1.0 mph 87% 0.00 in 0 W/m2
01:58 35.5 °F 31.7 °F 29.94 in ENE 1.0 mph 1.0 mph 86% 0.00 in 0 W/m2
02:04 35.2 °F 31.4 °F 29.94 in ENE 1.0 mph 2.0 mph 86% 0.00 in 0 W/m2
02:10 35.2 °F 31.4 °F 29.93 in ENE 2.0 mph 2.0 mph 86% 0.00 in 0 W/m2
02:16 35.1 °F 31.3 °F 29.93 in ENE 1.0 mph 2.0 mph 86% 0.00 in 0 W/m2
02:22 35.0 °F 30.9 °F 29.93 in ENE 1.0 mph 1.0 mph 85% 0.00 in 0 W/m2
02:28 34.8 °F 30.8 °F 29.93 in Calm   1.0 mph 85% 0.00 in 0 W/m2
02:33 34.5 °F 30.7 °F 29.93 in Calm   2.0 mph 86% 0.00 in 0 W/m2
02:40 34.4 °F 30.6 °F 29.93 in Calm     86% 0.00 in 0 W/m2
02:45 34.3 °F 30.5 °F 29.92 in Calm     86% 0.00 in 0 W/m2
02:52 34.2 °F 30.4 °F 29.92 in Calm     86% 0.00 in 0 W/m2
02:58 34.3 °F 30.5 °F 29.93 in Calm     86% 0.00 in 0 W/m2
03:04 34.4 °F 30.9 °F 29.93 in Calm     87% 0.00 in 0 W/m2
03:10 34.5 °F 31.0 °F 29.93 in Calm     87% 0.00 in 0 W/m2
03:16 34.7 °F 31.2 °F 29.93 in Calm     87% 0.00 in 0 W/m2
03:22 34.8 °F 31.3 °F 29.93 in Calm     87% 0.00 in 0 W/m2
03:28 35.0 °F 31.5 °F 29.92 in Calm   1.0 mph 87% 0.00 in 0 W/m2
03:34 35.4 °F 31.6 °F 29.92 in East 1.0 mph 2.0 mph 86% 0.00 in 0 W/m2
03:40 35.9 °F 32.1 °F 29.92 in Calm   3.0 mph 86% 0.00 in 0 W/m2
03:46 36.8 °F 32.4 °F 29.92 in East 1.0 mph 3.0 mph 84% 0.00 in 0 W/m2
03:52 36.8 °F 32.1 °F 29.92 in East 1.0 mph 1.0 mph 83% 0.00 in 0 W/m2
03:58 36.9 °F 32.2 °F 29.92 in ENE 1.0 mph 1.0 mph 83% 0.00 in 0 W/m2
04:03 36.5 °F 31.8 °F 29.92 in Calm   1.0 mph 83% 0.00 in 0 W/m2
04:09 36.2 °F 31.8 °F 29.92 in ENE 1.0 mph 1.0 mph 84% 0.00 in 0 W/m2
04:16 36.4 °F 32.0 °F 29.92 in ENE 1.0 mph 1.0 mph 84% 0.00 in 0 W/m2
04:22 36.7 °F 32.0 °F 29.92 in ENE 1.0 mph 1.0 mph 83% 0.00 in 0 W/m2
04:28 37.4 °F 32.1 °F 29.92 in East 1.0 mph 2.0 mph 81% 0.00 in 0 W/m2
04:34 37.4 °F 32.1 °F 29.92 in Calm   1.0 mph 81% 0.00 in 0 W/m2
04:40 37.3 °F 32.0 °F 29.92 in Calm     81% 0.00 in 0 W/m2
04:46 37.3 °F 32.0 °F 29.92 in Calm   2.0 mph 81% 0.00 in 0 W/m2
04:52 37.7 °F 32.4 °F 29.92 in Calm     81% 0.00 in 0 W/m2
04:58 38.1 °F 32.8 °F 29.91 in ENE 1.0 mph 2.0 mph 81% 0.00 in 0 W/m2
05:04 38.3 °F 32.4 °F 29.92 in ENE 1.0 mph 1.0 mph 79% 0.00 in 0 W/m2
05:09 38.4 °F 32.1 °F 29.92 in Calm     78% 0.00 in 0 W/m2
05:16 38.2 °F 31.9 °F 29.92 in Calm     78% 0.00 in 0 W/m2
05:22 38.1 °F 32.2 °F 29.92 in Calm     79% 0.00 in 0 W/m2
05:28 37.9 °F 32.3 °F 29.92 in Calm     80% 0.00 in 0 W/m2
05:34 37.7 °F 32.1 °F 29.92 in Calm     80% 0.00 in 0 W/m2
05:40 37.6 °F 32.3 °F 29.92 in Calm     81% 0.00 in 0 W/m2
05:45 37.6 °F 32.3 °F 29.93 in Calm     81% 0.00 in 0 W/m2
05:52 37.8 °F 32.2 °F 29.93 in Calm     80% 0.00 in 0 W/m2
05:58 38.2 °F 32.3 °F 29.93 in Calm   2.0 mph 79% 0.00 in 0 W/m2
06:03 38.2 °F 32.6 °F 29.93 in Calm     80% 0.00 in 0 W/m2
06:10 38.1 °F 32.2 °F 29.93 in Calm   1.0 mph 79% 0.00 in 0 W/m2
06:16 37.9 °F 32.3 °F 29.93 in Calm   1.0 mph 80% 0.00 in 0 W/m2
06:22 37.7 °F 32.1 °F 29.93 in Calm   3.0 mph 80% 0.00 in 0 W/m2
06:28 37.7 °F 32.1 °F 29.92 in Calm   3.0 mph 80% 0.00 in 0 W/m2
06:33 37.7 °F 32.1 °F 29.92 in Calm     80% 0.00 in 0 W/m2
06:40 37.6 °F 32.3 °F 29.92 in Calm     81% 0.00 in 0 W/m2
06:46 38.0 °F 32.1 °F 29.92 in Calm   1.0 mph 79% 0.00 in 0 W/m2
06:52 38.0 °F 32.1 °F 29.92 in Calm     79% 0.00 in 0 W/m2
06:58 37.8 °F 32.2 °F 29.92 in Calm   1.0 mph 80% 0.00 in 0 W/m2
07:03 37.9 °F 32.0 °F 29.92 in Calm   1.0 mph 79% 0.00 in 5 W/m2
07:09 38.1 °F 31.8 °F 29.92 in Calm     78% 0.00 in 9 W/m2
07:16 38.3 °F 32.0 °F 29.92 in East 1.0 mph 3.0 mph 78% 0.00 in 12 W/m2
07:22 38.2 °F 31.9 °F 29.92 in East 1.0 mph 1.0 mph 78% 0.00 in 12 W/m2
07:28 38.3 °F 31.7 °F 29.92 in Calm   1.0 mph 77% 0.00 in 16 W/m2
07:33 37.8 °F 31.6 °F 29.92 in Calm     78% 0.00 in 26 W/m2
07:40 37.5 °F 31.6 °F 29.92 in Calm     79% 0.00 in 33 W/m2
07:46 37.3 °F 31.4 °F 29.92 in ENE 1.0 mph 1.0 mph 79% 0.00 in 37 W/m2
07:52 37.4 °F 31.5 °F 29.92 in ENE 1.0 mph 2.0 mph 79% 0.00 in 81 W/m2
07:58 37.9 °F 32.0 °F 29.92 in ENE 1.0 mph 2.0 mph 79% 0.00 in 44 W/m2
08:03 38.0 °F 31.7 °F 29.92 in Calm   1.0 mph 78% 0.00 in 60 W/m2
08:10 38.1 °F 31.8 °F 29.92 in Calm     78% 0.00 in 70 W/m2
08:16 38.6 °F 32.0 °F 29.93 in NNE 1.0 mph 4.0 mph 77% 0.00 in 134 W/m2
08:22 39.6 °F 32.3 °F 29.93 in NNE 1.0 mph 1.0 mph 75% 0.00 in 155 W/m2
08:28 40.3 °F 32.3 °F 29.93 in ENE 1.0 mph 2.0 mph 73% 0.00 in 97 W/m2
08:33 40.7 °F 32.4 °F 29.93 in ENE 1.0 mph 2.0 mph 72% 0.00 in 97 W/m2
08:40 41.0 °F 32.3 °F 29.93 in ENE 2.0 mph 2.0 mph 71% 0.00 in 141 W/m2
08:45 41.3 °F 32.6 °F 29.93 in ENE 1.0 mph 2.0 mph 71% 0.00 in 95 W/m2
08:52 41.5 °F 32.4 °F 29.93 in NNE 1.0 mph 4.0 mph 70% 0.00 in 88 W/m2
08:58 41.5 °F 32.4 °F 29.92 in NNE 1.0 mph 4.0 mph 70% 0.00 in 79 W/m2
09:04 41.5 °F 32.1 °F 29.92 in East 2.0 mph 3.0 mph 69% 0.00 in 90 W/m2
09:09 41.5 °F 32.4 °F 29.93 in ENE 2.0 mph 5.0 mph 70% 0.00 in 83 W/m2
09:16 41.6 °F 32.5 °F 29.93 in ENE 2.0 mph 5.0 mph 70% 0.00 in 74 W/m2
09:22 41.9 °F 32.8 °F 29.93 in ENE 1.0 mph 2.0 mph 70% 0.00 in 105 W/m2
09:28 42.2 °F 33.1 °F 29.92 in ENE 1.0 mph 3.0 mph 70% 0.00 in 137 W/m2
09:34 42.5 °F 32.7 °F 29.92 in ESE 2.0 mph 3.0 mph 68% 0.00 in 178 W/m2
09:39 43.5 °F 33.6 °F 29.92 in SE 2.0 mph 2.0 mph 68% 0.00 in 197 W/m2
09:46 44.1 °F 33.5 °F 29.92 in ENE 2.0 mph 2.0 mph 66% 0.00 in 244 W/m2
09:52 44.6 °F 33.6 °F 29.92 in ENE 3.0 mph 3.0 mph 65% 0.00 in 517 W/m2
09:58 45.2 °F 33.7 °F 29.92 in ENE 2.0 mph 4.0 mph 64% 0.00 in 237 W/m2
10:04 45.3 °F 33.8 °F 29.91 in ENE 2.0 mph 4.0 mph 64% 0.00 in 232 W/m2
10:10 46.1 °F 33.8 °F 29.91 in East 3.0 mph 3.0 mph 62% 0.00 in 575 W/m2
10:15 46.2 °F 34.7 °F 29.91 in ESE 3.0 mph 4.0 mph 64% 0.00 in 188 W/m2
10:22 47.1 °F 33.9 °F 29.91 in East 2.0 mph 3.0 mph 60% 0.00 in 526 W/m2
10:28 47.3 °F 33.7 °F 29.91 in ENE 2.0 mph 4.0 mph 59% 0.00 in 621 W/m2
10:34 48.1 °F 34.9 °F 29.91 in East 2.0 mph 3.0 mph 60% 0.00 in 592 W/m2
10:39 48.0 °F 34.8 °F 29.90 in ESE 2.0 mph 2.0 mph 60% 0.00 in 179 W/m2
10:46 48.8 °F 34.7 °F 29.89 in ESE 2.0 mph 3.0 mph 58% 0.00 in 550 W/m2
10:52 49.6 °F 36.3 °F 29.89 in East 1.0 mph 2.0 mph 60% 0.00 in 555 W/m2
10:58 49.9 °F 35.3 °F 29.89 in NE 2.0 mph 3.0 mph 57% 0.00 in 570 W/m2
11:04 49.5 °F 34.0 °F 29.89 in ENE 3.0 mph 4.0 mph 55% 0.00 in 578 W/m2
11:10 50.9 °F 35.7 °F 29.89 in East 2.0 mph 3.0 mph 56% 0.00 in 512 W/m2
11:15 52.3 °F 36.6 °F 29.89 in NE 1.0 mph 4.0 mph 55% 0.00 in 599 W/m2
11:22 51.6 °F 35.5 °F 29.89 in ENE 2.0 mph 5.0 mph 54% 0.00 in 431 W/m2
11:28 51.5 °F 34.9 °F 29.89 in East 2.0 mph 5.0 mph 53% 0.00 in 294 W/m2
11:34 51.7 °F 35.6 °F 29.89 in NE 2.0 mph 3.0 mph 54% 0.00 in 297 W/m2
11:45 52.4 °F 35.3 °F 29.87 in NE 1.0 mph 3.0 mph 52% 0.00 in 397 W/m2
11:52 52.9 °F 37.2 °F 29.86 in East 2.0 mph 5.0 mph 55% 0.00 in 642 W/m2
11:58 53.3 °F 37.5 °F 29.86 in East 3.0 mph 5.0 mph 55% 0.00 in 622 W/m2
12:04 53.5 °F 35.8 °F 29.85 in ENE 3.0 mph 3.0 mph 51% 0.00 in 606 W/m2
12:10 53.8 °F 35.6 °F 29.85 in East 3.0 mph 3.0 mph 50% 0.00 in 612 W/m2
12:16 54.6 °F 37.8 °F 29.84 in ENE 3.0 mph 5.0 mph 53% 0.00 in 617 W/m2
12:22 54.6 °F 35.8 °F 29.84 in East 3.0 mph 6.0 mph 49% 0.00 in 629 W/m2
12:28 54.5 °F 35.7 °F 29.83 in East 3.0 mph 6.0 mph 49% 0.00 in 629 W/m2
12:34 55.0 °F 36.2 °F 29.83 in North 3.0 mph 4.0 mph 49% 0.00 in 605 W/m2
12:40 54.8 °F 36.5 °F 29.83 in NNE 3.0 mph 3.0 mph 50% 0.00 in 603 W/m2
12:46 55.8 °F 36.4 °F 29.83 in NE 2.0 mph 3.0 mph 48% 0.00 in 598 W/m2
12:52 55.6 °F 36.2 °F 29.83 in NE 2.0 mph 3.0 mph 48% 0.00 in 596 W/m2
12:58 56.2 °F 36.2 °F 29.83 in North 3.0 mph 3.0 mph 47% 0.00 in 650 W/m2
13:03 56.9 °F 37.4 °F 29.83 in East 3.0 mph 4.0 mph 48% 0.00 in 749 W/m2
13:10 56.0 °F 36.6 °F 29.83 in ENE 3.0 mph 3.0 mph 48% 0.00 in 703 W/m2
13:16 57.0 °F 38.5 °F 29.83 in NNE 3.0 mph 4.0 mph 50% 0.00 in 425 W/m2
13:22 56.7 °F 38.8 °F 29.82 in ENE 2.0 mph 4.0 mph 51% 0.00 in 603 W/m2
13:28 57.0 °F 38.0 °F 29.82 in NNE 2.0 mph 4.0 mph 49% 0.00 in 585 W/m2
13:34 57.6 °F 39.1 °F 29.81 in ENE 2.0 mph 2.0 mph 50% 0.00 in 580 W/m2
13:40 57.3 °F 36.7 °F 29.81 in ENE 2.0 mph 4.0 mph 46% 0.00 in 526 W/m2
13:46 57.7 °F 37.0 °F 29.81 in NE 2.0 mph 4.0 mph 46% 0.00 in 420 W/m2
13:52 58.2 °F 37.5 °F 29.81 in NNE 2.0 mph 4.0 mph 46% 0.00 in 378 W/m2
13:58 58.0 °F 37.9 °F 29.81 in NNE 2.0 mph 4.0 mph 47% 0.00 in 308 W/m2
14:03 57.7 °F 37.0 °F 29.82 in NNE 2.0 mph 3.0 mph 46% 0.00 in 174 W/m2
14:10 57.0 °F 37.0 °F 29.82 in NE 2.0 mph 2.0 mph 47% 0.00 in 132 W/m2
14:16 56.3 °F 37.4 °F 29.81 in NE 1.0 mph 3.0 mph 49% 0.00 in 118 W/m2
14:22 55.8 °F 36.9 °F 29.81 in NE 1.0 mph 4.0 mph 49% 0.00 in 98 W/m2
14:28 55.2 °F 36.4 °F 29.81 in NE 1.0 mph 4.0 mph 49% 0.00 in 111 W/m2
14:33 55.1 °F 36.8 °F 29.81 in NE 1.0 mph 3.0 mph 50% 0.00 in 120 W/m2
14:40 55.0 °F 37.7 °F 29.81 in NE 1.0 mph 3.0 mph 52% 0.00 in 146 W/m2
14:46 54.9 °F 37.1 °F 29.81 in NE 1.0 mph 3.0 mph 51% 0.00 in 223 W/m2
14:52 55.5 °F 37.7 °F 29.81 in ENE 2.0 mph 4.0 mph 51% 0.00 in 193 W/m2
14:58 56.4 °F 36.9 °F 29.80 in ENE 2.0 mph 4.0 mph 48% 0.00 in 483 W/m2
15:03 57.1 °F 37.6 °F 29.80 in NE 2.0 mph 2.0 mph 48% 0.00 in 455 W/m2
15:10 57.5 °F 37.9 °F 29.80 in ENE 2.0 mph 2.0 mph 48% 0.00 in 290 W/m2
15:16 57.3 °F 38.3 °F 29.80 in East 2.0 mph 5.0 mph 49% 0.00 in 192 W/m2
15:22 57.0 °F 37.0 °F 29.79 in ENE 2.0 mph 2.0 mph 47% 0.00 in 148 W/m2
15:28 56.9 °F 38.4 °F 29.79 in ENE 1.0 mph 2.0 mph 50% 0.00 in 120 W/m2
15:34 56.9 °F 37.9 °F 29.79 in ENE 1.0 mph 3.0 mph 49% 0.00 in 188 W/m2
15:38 57.0 °F 37.5 °F 29.79 in East 1.0 mph 3.0 mph 48% 0.00 in 135 W/m2
15:43 57.0 °F 37.5 °F 29.79 in ESE 2.0 mph 3.0 mph 48% 0.00 in 111 W/m2
15:49 57.0 °F 38.0 °F 29.79 in ENE 2.0 mph 2.0 mph 49% 0.00 in 97 W/m2
15:56 56.8 °F 38.3 °F 29.79 in ENE 1.0 mph 2.0 mph 50% 0.00 in 74 W/m2
16:04 56.4 °F 37.5 °F 29.79 in ENE 1.0 mph 1.0 mph 49% 0.00 in 70 W/m2
16:09 55.7 °F 38.3 °F 29.79 in ENE 1.0 mph 1.0 mph 52% 0.00 in 90 W/m2
16:15 55.9 °F 37.5 °F 29.79 in ENE 1.0 mph 2.0 mph 50% 0.00 in 70 W/m2
16:22 56.0 °F 38.6 °F 29.79 in ENE 1.0 mph 1.0 mph 52% 0.00 in 39 W/m2
16:28 55.8 °F 38.4 °F 29.79 in Calm   1.0 mph 52% 0.00 in 42 W/m2
16:34 55.5 °F 39.1 °F 29.79 in Calm     54% 0.00 in 54 W/m2
16:39 54.9 °F 38.6 °F 29.79 in Calm     54% 0.00 in 28 W/m2
16:46 54.6 °F 37.3 °F 29.79 in Calm   2.0 mph 52% 0.00 in 21 W/m2
16:52 54.0 °F 38.2 °F 29.79 in Calm     55% 0.00 in 14 W/m2
16:58 53.7 °F 37.9 °F 29.79 in Calm     55% 0.00 in 12 W/m2
17:04 53.4 °F 37.6 °F 29.79 in Calm     55% 0.00 in 14 W/m2
17:10 53.3 °F 37.1 °F 29.79 in Calm   2.0 mph 54% 0.00 in 32 W/m2
17:16 52.4 °F 37.6 °F 29.78 in NE 1.0 mph 2.0 mph 57% 0.00 in 26 W/m2
17:22 52.0 °F 37.7 °F 29.78 in NE 1.0 mph 1.0 mph 58% 0.00 in 19 W/m2
17:28 51.7 °F 38.3 °F 29.78 in Calm   1.0 mph 60% 0.00 in 11 W/m2
17:34 51.6 °F 37.3 °F 29.78 in Calm     58% 0.00 in 7 W/m2
17:39 51.8 °F 37.5 °F 29.78 in Calm     58% 0.00 in 5 W/m2
17:46 51.5 °F 37.6 °F 29.78 in Calm     59% 0.00 in 0 W/m2
17:52 51.0 °F 38.0 °F 29.78 in Calm     61% 0.00 in 0 W/m2
17:58 50.3 °F 37.4 °F 29.78 in Calm     61% 0.00 in 0 W/m2
18:04 49.5 °F 37.0 °F 29.78 in Calm     62% 0.00 in 0 W/m2
18:10 48.7 °F 37.1 °F 29.78 in Calm     64% 0.00 in 0 W/m2
18:16 48.0 °F 36.8 °F 29.78 in Calm     65% 0.00 in 0 W/m2
18:22 47.3 °F 36.5 °F 29.78 in Calm     66% 0.00 in 0 W/m2
18:28 46.8 °F 36.4 °F 29.78 in Calm   1.0 mph 67% 0.00 in 0 W/m2
18:33 46.6 °F 36.2 °F 29.78 in Calm     67% 0.00 in 0 W/m2
18:39 46.3 °F 35.9 °F 29.78 in Calm     67% 0.00 in 0 W/m2
18:46 46.0 °F 36.0 °F 29.78 in Calm     68% 0.00 in 0 W/m2
18:52 45.4 °F 35.8 °F 29.78 in Calm     69% 0.00 in 0 W/m2
18:58 45.0 °F 35.8 °F 29.78 in Calm   1.0 mph 70% 0.00 in 0 W/m2
19:04 44.9 °F 35.7 °F 29.78 in NE 1.0 mph 2.0 mph 70% 0.00 in 0 W/m2
19:09 44.9 °F 35.7 °F 29.78 in NE 1.0 mph 1.0 mph 70% 0.00 in 0 W/m2
19:16 45.1 °F 35.9 °F 29.78 in NE 1.0 mph 2.0 mph 70% 0.00 in 0 W/m2
19:22 45.1 °F 35.5 °F 29.78 in NE 1.0 mph 1.0 mph 69% 0.00 in 0 W/m2
19:28 44.6 °F 35.4 °F 29.78 in Calm   1.0 mph 70% 0.00 in 0 W/m2
19:33 44.2 °F 35.4 °F 29.78 in Calm     71% 0.00 in 0 W/m2
19:39 44.0 °F 35.6 °F 29.78 in Calm     72% 0.00 in 0 W/m2
19:46 43.6 °F 35.5 °F 29.78 in Calm     73% 0.00 in 0 W/m2
19:52 43.3 °F 35.6 °F 29.77 in Calm     74% 0.00 in 0 W/m2
19:58 43.4 °F 35.7 °F 29.77 in Calm     74% 0.00 in 0 W/m2
20:04 43.6 °F 35.9 °F 29.78 in Calm     74% 0.00 in 0 W/m2
20:10 43.4 °F 35.3 °F 29.78 in Calm     73% 0.00 in 0 W/m2
20:15 43.1 °F 35.4 °F 29.78 in Calm     74% 0.00 in 0 W/m2
20:22 43.0 °F 35.3 °F 29.78 in Calm     74% 0.00 in 0 W/m2
20:28 43.0 °F 35.6 °F 29.78 in Calm     75% 0.00 in 0 W/m2
20:34 43.0 °F 35.6 °F 29.78 in Calm     75% 0.00 in 0 W/m2
20:40 42.9 °F 35.5 °F 29.78 in Calm     75% 0.00 in 0 W/m2
20:45 42.7 °F 35.3 °F 29.78 in Calm     75% 0.00 in 0 W/m2
20:52 42.6 °F 35.2 °F 29.78 in Calm     75% 0.00 in 0 W/m2
20:58 42.4 °F 35.0 °F 29.78 in Calm     75% 0.00 in 0 W/m2
21:04 42.2 °F 35.2 °F 29.78 in Calm     76% 0.00 in 0 W/m2
21:10 42.2 °F 35.2 °F 29.78 in Calm     76% 0.00 in 0 W/m2
21:16 42.4 °F 35.4 °F 29.78 in Calm     76% 0.00 in 0 W/m2
21:22 42.5 °F 35.8 °F 29.78 in Calm     77% 0.00 in 0 W/m2
21:28 42.9 °F 36.8 °F 29.78 in Calm     79% 0.00 in 0 W/m2
21:33 43.3 °F 37.2 °F 29.78 in Calm   1.0 mph 79% 0.00 in 0 W/m2
21:39 43.8 °F 37.7 °F 29.78 in Calm     79% 0.00 in 0 W/m2
21:46 44.4 °F 38.3 °F 29.78 in Calm     79% 0.00 in 0 W/m2
21:52 44.6 °F 37.8 °F 29.78 in Calm     77% 0.00 in 0 W/m2
21:58 44.6 °F 37.5 °F 29.78 in Calm     76% 0.00 in 0 W/m2
22:04 44.6 °F 37.8 °F 29.78 in Calm     77% 0.00 in 0 W/m2
22:09 44.5 °F 37.7 °F 29.78 in Calm     77% 0.00 in 0 W/m2
22:16 44.4 °F 37.6 °F 29.78 in Calm     77% 0.00 in 0 W/m2
22:22 44.5 °F 37.7 °F 29.78 in Calm     77% 0.00 in 0 W/m2
22:28 44.5 °F 37.7 °F 29.78 in Calm     77% 0.00 in 0 W/m2
22:34 44.3 °F 37.9 °F 29.78 in Calm     78% 0.00 in 0 W/m2
22:40 44.2 °F 37.8 °F 29.78 in Calm     78% 0.00 in 0 W/m2
22:46 44.1 °F 37.7 °F 29.78 in Calm     78% 0.00 in 0 W/m2
22:52 44.0 °F 37.9 °F 29.78 in Calm     79% 0.00 in 0 W/m2
22:58 43.9 °F 37.8 °F 29.78 in Calm     79% 0.00 in 0 W/m2
23:03 43.9 °F 37.8 °F 29.78 in Calm     79% 0.00 in 0 W/m2
23:10 44.0 °F 37.9 °F 29.78 in Calm     79% 0.00 in 0 W/m2
23:16 43.8 °F 37.7 °F 29.78 in Calm     79% 0.00 in 0 W/m2
23:22 43.8 °F 37.7 °F 29.78 in Calm     79% 0.00 in 0 W/m2
23:28 43.5 °F 37.1 °F 29.77 in Calm     78% 0.00 in 0 W/m2
23:34 43.6 °F 37.5 °F 29.77 in Calm     79% 0.00 in 0 W/m2
23:40 43.5 °F 37.4 °F 29.77 in Calm     79% 0.00 in 0 W/m2
23:46 43.5 °F 37.4 °F 29.77 in Calm     79% 0.00 in 0 W/m2
23:52 43.3 °F 37.5 °F 29.77 in Calm     80% 0.00 in 0 W/m2
23:58 43.2 °F 37.4 °F 29.77 in Calm     80% 0.00 in 0 W/m2
Country Meadow, Clay, NY, USA
Compliments of Weather Underground - 2 mb